Nome の空港の天気 - METARとTAF

Nome, Nome Airport ( PAOM / OME ) - アメリカ アラスカ州Nome
飛行場実況気象(Metar)
観測時間05/29 08:53 AKDT (05/29 16:53 UTC)
風向・風速北北西 2m/s
視程10km以上
天気現象
なし
気温8.3℃
湿度65%
気圧1024.9hPa
METARPAOM 291653Z 33004KT 10SM CLR 08/02 A3027 RMK AO2 SLP249 T00830022
過去の天気等 Google飛行場航空写真 Wunderground天気予報

過去48時間のMETAR

飛行場予報(TAF)
発表時間: 5/29 09:31 AKDT (5/29 17:31 UTC)
予報対象時間: 29日10時 AKDT ~ 30日10時 AKDT
風向・風速北北西 2m/s
視程10km以上
なし
29日13時 AKDT から
風向・風速南西 5m/s
視程10km以上
なし
29日20時 AKDT から
風向・風速北北東 4m/s
視程10km以上
なし
PAOM 291731Z 2918/3018 33004KT P6SM SKC
FM292100 22009KT P6SM SKC
FM300400 02008KT P6SM SKC